Time;durP1;ratioP1;P1;durP2;ratioP2;P2;SDS_P1;SDS_P2;PMS_P1;PMS_P2;Temp;Humidity;BMP_temperature;BMP_pressure;BME280_temperature;BME280_humidity;BME280_pressure;Samples;Min_cycle;Max_cycle;Signal;HPM_P1;HPM_P2
2023/10/06 00:00:47;;;;;;;17.70;7.82;;;17.40;99.90;;;17.84;87.93;102283.34;5056610;28;20127;-82
2023/10/06 00:03:16;;;;;;;18.77;7.65;;;17.40;99.90;;;17.78;88.23;102289.66;5056299;28;20103;-83
2023/10/06 00:05:48;;;;;;;17.90;7.38;;;17.30;99.90;;;17.72;88.57;102284.38;5056218;28;20400;-84
2023/10/06 00:08:18;;;;;;;14.30;7.30;;;17.30;99.90;;;17.73;88.49;102279.91;5056530;28;20139;-84
2023/10/06 00:10:50;;;;;;;18.23;7.78;;;17.30;99.90;;;17.68;88.62;102285.31;5056527;28;20052;-84
2023/10/06 00:13:23;;;;;;;13.48;7.03;;;17.20;99.90;;;17.54;88.59;102251.53;5056231;28;20040;-84
2023/10/06 00:15:55;;;;;;;16.17;6.85;;;17.20;99.90;;;17.65;88.62;102277.28;5056049;28;20091;-85
2023/10/06 00:18:23;;;;;;;18.50;7.03;;;17.20;99.90;;;17.67;88.60;102277.28;5055890;28;20049;-84
2023/10/06 00:20:56;;;;;;;17.90;7.03;;;17.20;99.90;;;17.60;88.62;102273.78;5055316;28;20593;-84
2023/10/06 00:23:28;;;;;;;13.23;6.10;;;17.10;99.90;;;17.61;88.54;102266.66;5055650;28;20057;-84
2023/10/06 00:25:57;;;;;;;16.58;6.57;;;17.20;99.90;;;17.56;88.26;102265.78;5055661;28;20474;-84
2023/10/06 00:28:27;;;;;;;13.63;6.22;;;17.10;99.90;;;17.51;88.61;102259.63;5055701;28;20073;-81
2023/10/06 00:31:06;;;;;;;14.18;6.55;;;17.10;99.90;;;17.48;88.81;102271.22;5055855;28;20068;-84
2023/10/06 00:33:37;;;;;;;13.75;6.55;;;17.10;99.90;;;17.42;88.78;102273.94;5054717;28;20041;-85
2023/10/06 00:36:11;;;;;;;16.10;6.55;;;17.00;99.90;;;17.33;88.83;102254.41;5056015;28;20057;-84
2023/10/06 00:38:42;;;;;;;14.18;6.13;;;17.00;99.90;;;17.40;88.98;102267.72;5054329;28;20049;-84
2023/10/06 00:41:14;;;;;;;17.73;6.18;;;17.00;99.90;;;17.38;89.07;102258.81;5055936;28;20438;-84
2023/10/06 00:43:44;;;;;;;12.77;6.43;;;17.00;99.90;;;17.44;89.05;102266.78;5055595;28;20041;-84
2023/10/06 00:46:16;;;;;;;19.48;6.97;;;17.00;99.90;;;17.43;88.88;102270.38;5055519;28;20072;-84
2023/10/06 00:48:52;;;;;;;14.38;5.97;;;17.00;99.90;;;17.44;88.62;102272.13;5054154;28;20057;-84
2023/10/06 00:51:23;;;;;;;14.43;5.88;;;17.00;99.90;;;17.47;88.64;102261.41;5054412;28;20057;-83
2023/10/06 00:53:51;;;;;;;13.38;5.80;;;17.00;99.90;;;17.40;88.49;102267.72;5055649;28;20044;-84
2023/10/06 00:56:23;;;;;;;12.80;5.93;;;17.00;99.90;;;17.35;89.09;102253.50;5055132;28;20045;-83
2023/10/06 00:58:53;;;;;;;13.93;5.93;;;16.90;99.90;;;17.34;89.06;102256.19;5055675;28;20394;-84
2023/10/06 01:01:23;;;;;;;13.90;5.88;;;16.90;99.90;;;17.33;89.18;102257.09;5055483;28;20057;-83
2023/10/06 01:04:00;;;;;;;11.45;5.57;;;16.90;99.90;;;17.31;89.19;102251.75;5055554;28;20432;-84
2023/10/06 01:06:35;;;;;;;14.07;5.93;;;16.90;99.90;;;17.38;89.09;102250.78;5055250;28;20485;-84
2023/10/06 01:09:13;;;;;;;13.73;6.20;;;16.90;99.90;;;16.54;89.05;102132.19;5055381;28;20040;-84
2023/10/06 01:11:45;;;;;;;16.38;6.72;;;16.90;99.90;;;17.30;89.27;102255.34;5055312;28;20049;-85
2023/10/06 01:14:21;;;;;;;;;;;16.90;99.90;;;17.31;89.08;102254.44;5055679;28;20047;-84
2023/10/06 01:16:53;;;;;;;14.13;6.70;;;16.90;99.90;;;17.32;89.56;102245.53;5070889;28;19928;-84
2023/10/06 01:19:27;;;;;;;14.27;6.70;;;16.80;99.90;;;17.33;89.08;102239.25;5054977;28;20056;-84
2023/10/06 01:21:56;;;;;;;13.13;5.93;;;16.90;99.90;;;17.23;89.71;102237.56;5054486;28;20049;-84
2023/10/06 01:24:27;;;;;;;17.35;6.13;;;16.80;99.90;;;17.24;89.93;102233.13;5054147;28;20044;-85
2023/10/06 01:27:00;;;;;;;9.73;5.68;;;16.80;99.90;;;17.25;89.83;102218.84;5039131;28;20099;-84
2023/10/06 01:29:30;;;;;;;14.02;6.43;;;16.80;99.90;;;17.28;89.92;102229.50;5054737;28;20051;-83
2023/10/06 01:32:04;;;;;;;14.30;6.95;;;16.80;99.90;;;17.24;89.84;102227.75;5054945;28;20041;-83
2023/10/06 01:34:37;;;;;;;14.40;6.55;;;16.80;99.90;;;17.26;89.90;102225.97;5054629;28;20045;-83
2023/10/06 01:37:07;;;;;;;14.55;6.57;;;16.80;99.90;;;17.27;90.00;102225.03;5054795;28;20183;-83
2023/10/06 01:39:37;;;;;;;16.13;6.82;;;16.80;99.90;;;17.30;89.79;102227.72;5053464;28;20059;-84
2023/10/06 01:42:08;;;;;;;15.18;6.50;;;16.80;99.90;;;17.20;90.05;102234.03;5053160;28;20095;-84
2023/10/06 01:44:37;;;;;;;14.80;6.78;;;16.80;99.90;;;17.24;90.01;102227.75;5037408;28;20071;-83
2023/10/06 01:47:05;;;;;;;12.93;6.43;;;16.80;99.90;;;17.23;89.89;102231.34;5053096;28;20069;-84
2023/10/06 01:49:36;;;;;;;14.52;6.80;;;16.80;99.90;;;17.22;90.11;102233.13;5054458;28;20053;-81
2023/10/06 01:52:05;;;;;;;15.07;6.30;;;16.80;99.90;;;17.21;89.99;102228.66;5054542;28;20048;-84
2023/10/06 01:54:38;;;;;;;10.85;6.07;;;16.80;99.90;;;17.22;90.10;102230.47;5053121;28;20106;-84
2023/10/06 01:57:10;;;;;;;14.13;6.63;;;16.80;99.90;;;17.23;89.83;102223.34;5054182;28;20495;-84
2023/10/06 01:59:38;;;;;;;14.60;7.03;;;16.80;99.90;;;17.17;89.92;102214.44;5052852;28;20443;-83
2023/10/06 02:02:13;;;;;;;15.52;6.47;;;16.70;99.90;;;17.20;89.92;102218.91;5054305;28;20045;-84
2023/10/06 02:04:45;;;;;;;14.85;6.68;;;16.70;99.90;;;17.15;89.75;102216.25;5054222;28;20146;-84
2023/10/06 02:07:14;;;;;;;18.42;6.75;;;16.70;99.90;;;17.13;89.77;102220.72;5053003;28;20132;-84
2023/10/06 02:09:44;;;;;;;14.30;6.10;;;16.80;99.90;;;17.21;89.74;102217.97;5052162;28;20388;-84
2023/10/06 02:12:13;;;;;;;16.17;6.47;;;16.70;99.90;;;17.23;89.73;102228.69;5037275;28;20045;-83
2023/10/06 02:14:42;;;;;;;15.68;6.45;;;16.80;99.90;;;17.24;89.71;102222.41;5052188;28;20049;-83
2023/10/06 02:17:12;;;;;;;17.95;7.38;;;16.80;99.90;;;17.15;89.55;102223.38;5052537;28;20076;-83
2023/10/06 02:19:43;;;;;;;10.38;6.03;;;16.70;99.90;;;17.16;89.42;102214.47;5053666;28;20049;-80
2023/10/06 02:22:11;;;;;;;15.05;6.57;;;16.80;99.90;;;17.26;89.28;102225.97;5053711;28;20533;-82
2023/10/06 02:24:40;;;;;;;15.77;7.05;;;16.80;99.90;;;17.22;89.24;102226.91;5053672;28;20549;-84
2023/10/06 02:27:12;;;;;;;13.43;6.70;;;16.80;99.90;;;17.24;89.29;102230.44;5052281;28;20048;-84
2023/10/06 02:29:43;;;;;;;19.17;6.60;;;16.80;99.90;;;17.28;89.08;102230.41;5052463;28;20519;-84
2023/10/06 02:32:13;;;;;;;14.65;7.00;;;16.80;99.90;;;17.23;89.12;102226.88;5053525;28;20052;-83
2023/10/06 02:34:44;;;;;;;16.58;7.00;;;16.80;99.90;;;17.26;89.36;102234.00;5053719;28;20052;-80
2023/10/06 02:37:17;;;;;;;15.20;6.57;;;16.80;99.90;;;17.25;89.13;102229.56;5053732;28;20044;-83
2023/10/06 02:39:46;;;;;;;11.20;6.18;;;16.80;99.90;;;17.36;88.85;102235.66;5053615;28;20056;-83
2023/10/06 02:42:19;;;;;;;12.27;7.35;;;16.90;99.90;;;17.36;88.55;102227.66;5053571;28;20088;-83
2023/10/06 02:44:49;;;;;;;13.63;6.53;;;16.90;99.90;;;17.30;88.74;102211.66;5053289;28;20513;-83
2023/10/06 02:47:17;;;;;;;11.63;6.53;;;16.90;99.90;;;17.19;88.87;102200.19;5053517;28;20394;-83
2023/10/06 02:49:48;;;;;;;16.15;6.50;;;16.80;99.90;;;17.22;89.12;102208.16;5053278;28;20071;-83
2023/10/06 02:52:20;;;;;;;16.08;7.43;;;16.70;99.90;;;17.13;89.22;102198.44;5052147;28;20048;-84
2023/10/06 02:55:04;;;;;;;15.25;6.70;;;16.70;99.90;;;17.14;89.39;102195.78;5053136;28;20045;-84
2023/10/06 02:57:35;;;;;;;15.75;6.53;;;16.70;99.90;;;17.12;89.63;102189.56;5037441;28;20053;-83
2023/10/06 03:00:32;;;;;;;13.63;6.40;;;16.70;99.90;;;17.03;89.58;102192.31;5053397;28;20064;-84
2023/10/06 03:03:11;;;;;;;14.93;6.60;;;16.60;99.90;;;16.99;90.00;102184.34;5053129;28;20049;-83
2023/10/06 03:05:49;;;;;;;13.63;6.75;;;16.50;99.90;;;17.00;90.13;102175.41;5053169;28;20045;-83
2023/10/06 03:08:20;;;;;;;13.75;6.40;;;16.60;99.90;;;16.95;90.19;102178.16;5051301;28;20102;-84
2023/10/06 03:10:50;;;;;;;14.82;6.75;;;16.60;99.90;;;16.98;90.53;102167.41;5068394;28;20056;-84
2023/10/06 03:13:24;;;;;;;14.70;6.80;;;16.60;99.90;;;16.98;90.34;102156.72;5051729;28;20044;-85
2023/10/06 03:15:52;;;;;;;13.23;6.60;;;16.60;99.90;;;17.02;90.54;102163.81;5067929;28;20462;-84
2023/10/06 03:18:21;;;;;;;15.10;7.45;;;16.60;99.90;;;16.95;90.26;102145.16;5051014;28;20048;-83
2023/10/06 03:20:50;;;;;;;16.33;7.45;;;16.70;99.90;;;17.13;90.11;102167.25;5050456;28;20053;-83
2023/10/06 03:23:30;;;;;;;18.30;7.15;;;16.70;99.90;;;17.01;90.06;102151.31;5051404;28;20053;-83
2023/10/06 03:26:02;;;;;;;19.05;7.22;;;16.70;99.90;;;17.18;89.91;102177.91;5052624;28;20049;-84
2023/10/06 03:28:36;;;;;;;14.93;6.68;;;16.70;99.90;;;17.15;90.13;102175.25;5051304;28;20055;-83
2023/10/06 03:31:21;;;;;;;13.82;6.80;;;16.70;99.90;;;17.13;90.21;102179.72;5035816;28;20507;-83
2023/10/06 03:33:54;;;;;;;15.05;6.95;;;16.70;99.90;;;17.19;89.95;102181.47;5064832;28;20049;-81
2023/10/06 03:36:36;;;;;;;15.18;6.93;;;16.80;99.90;;;17.21;89.98;102177.84;5046953;28;20057;-83
2023/10/06 03:39:10;;;;;;;16.95;7.30;;;16.80;99.90;;;17.23;89.92;102177.88;5036706;28;20140;-83
2023/10/06 03:41:44;;;;;;;19.38;7.32;;;16.80;99.90;;;17.19;90.01;102189.50;5051298;28;20052;-84
2023/10/06 03:44:17;;;;;;;13.82;7.45;;;16.80;99.90;;;17.07;90.48;102171.78;5050859;28;20079;-81
2023/10/06 03:46:46;;;;;;;20.65;7.45;;;16.70;99.90;;;17.20;90.43;102178.78;5052082;28;20461;-83
2023/10/06 03:49:15;;;;;;;16.80;7.60;;;16.70;99.90;;;17.11;90.49;102171.72;5051863;28;20582;-83
2023/10/06 03:51:44;;;;;;;15.75;7.50;;;16.70;99.90;;;17.22;90.43;102176.06;5050833;28;20060;-83
2023/10/06 03:54:12;;;;;;;15.00;7.60;;;16.80;99.90;;;17.13;90.46;102171.69;5050683;28;20544;-84
2023/10/06 03:56:45;;;;;;;14.95;7.28;;;16.70;99.90;;;17.09;91.07;102159.28;5034985;28;20053;-84
2023/10/06 03:59:15;;;;;;;17.02;7.85;;;16.60;99.90;;;16.99;91.42;102155.81;5052661;28;20107;-82
2023/10/06 04:01:45;;;;;;;15.02;7.20;;;16.60;99.90;;;17.03;91.68;102151.34;5050774;28;20502;-83
2023/10/06 04:04:15;;;;;;;16.20;6.90;;;16.60;99.90;;;17.12;91.54;102152.13;5052308;28;20049;-82
2023/10/06 04:06:44;;;;;;;16.33;7.80;;;16.60;99.90;;;17.05;91.47;102146.84;5051966;28;20465;-80
2023/10/06 04:09:19;;;;;;;14.00;6.93;;;16.60;99.90;;;17.10;91.48;102150.34;5051731;28;20124;-84
2023/10/06 04:11:48;;;;;;;14.25;7.20;;;16.70;99.90;;;17.08;91.44;102142.34;5052169;28;20049;-83
2023/10/06 04:14:17;;;;;;;18.65;7.60;;;16.70;99.90;;;17.03;91.83;102156.69;5052156;28;20076;-83
2023/10/06 04:16:46;;;;;;;18.30;8.03;;;16.60;99.90;;;17.08;91.75;102157.50;5052149;28;20543;-83
2023/10/06 04:19:16;;;;;;;16.67;7.40;;;16.70;99.90;;;17.06;91.84;102159.31;5052322;28;20671;-81
2023/10/06 04:21:45;;;;;;;15.68;7.68;;;16.60;99.90;;;17.05;91.81;102150.41;5052104;28;20044;-81
2023/10/06 04:24:14;;;;;;;19.30;8.25;;;16.60;99.90;;;17.13;91.70;102156.56;5052011;28;20041;-83
2023/10/06 04:26:43;;;;;;;18.20;7.85;;;16.70;99.90;;;17.15;91.62;102149.41;5051968;28;20052;-85
2023/10/06 04:29:13;;;;;;;15.95;7.55;;;16.70;99.90;;;17.13;91.55;102152.97;5052280;28;20418;-82
2023/10/06 04:31:45;;;;;;;;;;;16.70;99.90;;;17.07;91.77;102151.25;5053759;28;20085;-84
2023/10/06 04:34:14;;;;;;;15.77;7.72;;;16.70;99.90;;;17.08;91.87;102137.00;5055831;28;19921;-84
2023/10/06 04:36:43;;;;;;;18.08;7.63;;;16.70;99.90;;;17.10;91.85;102139.66;5055728;28;20481;-83
2023/10/06 04:39:16;;;;;;;14.95;7.68;;;16.70;99.90;;;17.08;92.07;102130.78;5055649;28;20053;-84
2023/10/06 04:41:44;;;;;;;13.80;8.02;;;16.60;99.90;;;17.11;91.95;102136.09;5055637;28;20051;-84
2023/10/06 04:44:14;;;;;;;15.55;7.97;;;16.60;99.90;;;17.07;91.88;102126.34;5055840;28;20497;-83
2023/10/06 04:46:44;;;;;;;15.82;7.65;;;16.70;99.90;;;16.99;92.24;102129.06;5055514;28;20048;-84
2023/10/06 04:49:12;;;;;;;17.33;7.95;;;16.60;99.90;;;17.05;92.18;102136.16;5054430;28;20562;-82
2023/10/06 04:51:41;;;;;;;20.02;8.27;;;16.60;99.90;;;17.04;92.11;102121.00;5055617;28;20081;-84
2023/10/06 04:54:09;;;;;;;17.42;8.57;;;16.60;99.90;;;17.03;92.10;102117.44;5055368;28;20406;-83
2023/10/06 04:56:37;;;;;;;18.35;8.25;;;16.60;99.90;;;17.10;91.70;102115.59;5055832;28;20052;-81
2023/10/06 04:59:06;;;;;;;14.30;7.82;;;16.70;99.90;;;16.95;92.15;102116.66;5055864;28;20045;-84
2023/10/06 05:01:35;;;;;;;12.68;7.78;;;16.60;99.90;;;16.99;92.27;102126.38;5055428;28;20053;-83
2023/10/06 05:04:08;;;;;;;14.73;8.02;;;16.60;99.90;;;16.91;92.33;102117.59;5055073;28;20053;-84
2023/10/06 05:06:37;;;;;;;21.40;8.60;;;16.60;99.90;;;16.91;92.58;102119.38;5054959;28;20052;-84
2023/10/06 05:09:06;;;;;;;18.20;8.35;;;16.50;99.90;;;17.01;92.36;102135.28;5055115;28;20041;-83
2023/10/06 05:11:37;;;;;;;12.88;7.65;;;16.60;99.90;;;17.01;92.23;102139.78;5054937;28;20376;-83
2023/10/06 05:14:08;;;;;;;16.98;8.15;;;16.60;99.90;;;17.00;92.04;102133.53;5055202;28;20052;-83
2023/10/06 05:16:37;;;;;;;18.88;8.48;;;16.60;99.90;;;16.99;92.45;102137.09;5054983;28;20041;-84
2023/10/06 05:19:07;;;;;;;19.83;8.80;;;16.60;99.90;;;16.94;92.47;102130.03;5054439;28;20185;-84
2023/10/06 05:21:37;;;;;;;18.42;9.02;;;16.60;99.90;;;16.97;92.53;102133.56;5054502;28;20447;-84
2023/10/06 05:24:08;;;;;;;17.10;8.07;;;16.60;99.90;;;16.93;92.68;102136.28;5054538;28;20045;-84
2023/10/06 05:26:37;;;;;;;15.13;8.10;;;16.50;99.90;;;16.93;92.95;102126.50;5054582;28;20079;-84
2023/10/06 05:29:08;;;;;;;17.15;9.68;;;16.50;99.90;;;16.93;93.02;102133.59;5054657;28;20045;-83
2023/10/06 05:31:37;;;;;;;21.45;10.05;;;16.50;99.90;;;16.91;93.24;102125.63;5054438;28;20479;-84
2023/10/06 05:34:10;;;;;;;19.10;9.73;;;16.50;99.90;;;16.85;93.61;102136.38;5055127;28;20055;-84
2023/10/06 05:36:39;;;;;;;17.08;9.50;;;16.50;99.90;;;16.88;93.66;102130.97;5054597;28;20048;-84
2023/10/06 05:39:11;;;;;;;18.85;8.88;;;16.40;99.90;;;16.77;94.07;102135.53;5054505;28;20102;-85
2023/10/06 05:41:40;;;;;;;17.98;8.95;;;16.40;99.90;;;16.79;94.36;102144.44;5054669;28;20128;-84
2023/10/06 05:44:09;;;;;;;18.35;9.32;;;16.40;99.90;;;16.74;94.55;102129.34;5053975;28;20052;-84
2023/10/06 05:46:37;;;;;;;22.45;9.68;;;16.40;99.90;;;16.75;94.75;102139.13;5054476;28;20041;-83
2023/10/06 05:49:11;;;;;;;20.27;9.15;;;16.40;99.90;;;16.72;94.91;102126.69;5054146;28;20128;-84
2023/10/06 05:51:39;;;;;;;18.67;9.13;;;16.30;99.90;;;16.75;94.92;102137.34;5054200;28;20047;-84
2023/10/06 05:54:12;;;;;;;17.48;8.88;;;16.40;99.90;;;16.74;94.66;102124.88;5054753;28;20048;-84
2023/10/06 05:56:44;;;;;;;17.80;8.15;;;16.40;99.90;;;16.80;94.76;102130.16;5053738;28;20084;-85
2023/10/06 05:59:18;;;;;;;19.42;8.95;;;16.40;99.90;;;16.82;94.51;102140.84;5053871;28;20085;-84
2023/10/06 06:01:55;;;;;;;22.52;9.25;;;16.40;99.90;;;16.83;94.52;102127.47;5053608;28;20470;-85
2023/10/06 06:04:28;;;;;;;18.52;8.52;;;16.40;99.90;;;16.90;94.45;102141.63;5053309;28;20479;-84
2023/10/06 06:06:57;;;;;;;16.27;8.85;;;16.50;99.90;;;16.88;94.19;102136.31;5053535;28;20053;-84
2023/10/06 06:09:27;;;;;;;20.30;9.43;;;16.50;99.90;;;16.91;93.95;102130.97;5053573;28;20057;-84
2023/10/06 06:11:58;;;;;;;17.83;8.85;;;16.50;99.90;;;16.88;94.18;102133.66;5049235;28;20479;-84
2023/10/06 06:14:26;;;;;;;;;;;16.50;99.90;;;16.94;94.33;102125.56;5052720;28;20045;-85
2023/10/06 06:16:55;;;;;;;23.88;9.88;;;16.50;99.90;;;16.62;94.05;102068.00;5053645;28;19921;-84
2023/10/06 06:19:25;;;;;;;16.40;8.43;;;16.50;99.90;;;16.93;94.05;102121.13;5053036;28;20110;-82
2023/10/06 06:21:53;;;;;;;21.37;8.57;;;16.50;99.90;;;17.07;94.08;102123.66;5053140;28;20512;-83
2023/10/06 06:24:22;;;;;;;18.15;8.52;;;16.60;99.90;;;17.00;93.73;102128.19;5053287;28;20380;-85
2023/10/06 06:26:51;;;;;;;27.27;9.57;;;16.60;99.90;;;17.02;93.87;102122.81;5052076;28;20538;-85
2023/10/06 06:29:20;;;;;;;19.75;9.07;;;16.60;99.90;;;17.10;93.52;102129.84;5053223;28;20125;-84
2023/10/06 06:31:52;;;;;;;18.48;8.65;;;16.60;99.90;;;17.11;93.45;102125.41;5053198;28;20681;-85
2023/10/06 06:34:21;;;;;;;14.63;8.18;;;16.70;99.90;;;17.12;93.44;102133.41;5038023;28;20124;-84
2023/10/06 06:36:51;;;;;;;18.88;8.82;;;16.70;99.90;;;17.10;93.64;102132.53;5053665;28;20045;-82
2023/10/06 06:39:21;;;;;;;19.08;8.50;;;16.70;99.90;;;17.11;93.49;102130.75;5053361;28;20392;-84
2023/10/06 06:41:53;;;;;;;17.13;8.88;;;16.70;99.90;;;17.10;93.75;102135.22;5054048;28;20131;-85
2023/10/06 06:44:22;;;;;;;17.77;8.88;;;16.70;99.90;;;17.06;94.00;102132.56;5053267;28;20390;-85
2023/10/06 06:46:51;;;;;;;16.88;8.73;;;16.70;99.90;;;17.08;94.19;102131.66;5053266;28;20036;-85
2023/10/06 06:49:19;;;;;;;17.63;8.52;;;16.70;99.90;;;17.17;94.34;102132.47;5053416;28;20124;-85
2023/10/06 06:51:48;;;;;;;17.42;8.68;;;16.70;99.90;;;17.17;94.24;102128.88;5053379;28;20041;-85
2023/10/06 06:54:19;;;;;;;16.65;8.52;;;16.80;99.90;;;17.31;94.24;102122.47;5053356;28;20048;-84
2023/10/06 06:56:48;;;;;;;13.25;7.95;;;16.90;99.90;;;17.51;93.89;102132.06;5053471;28;20115;-85
2023/10/06 06:59:17;;;;;;;14.15;8.23;;;17.00;99.90;;;17.68;92.81;102123.81;5053179;28;20406;-84
2023/10/06 07:01:47;;;;;;;16.52;7.90;;;17.20;99.90;;;17.20;91.85;102025.44;5053288;28;20048;-85
2023/10/06 07:04:16;;;;;;;14.57;7.97;;;17.40;99.90;;;17.85;91.25;102129.81;5053018;28;20045;-85
2023/10/06 07:06:45;;;;;;;19.50;8.45;;;17.40;99.90;;;17.99;90.62;102141.22;5052242;28;20068;-85
2023/10/06 07:09:13;;;;;;;14.82;7.63;;;17.60;99.90;;;18.16;90.15;102143.63;5052584;28;20071;-86
2023/10/06 07:11:44;;;;;;;17.85;7.90;;;17.80;99.90;;;18.34;89.50;102141.59;5052540;28;20072;-84
2023/10/06 07:14:14;;;;;;;16.42;7.30;;;17.90;99.90;;;18.48;88.51;102147.66;5052762;28;20119;-85
2023/10/06 07:16:43;;;;;;;15.20;7.85;;;18.10;99.90;;;18.67;87.96;102148.22;5051819;28;20118;-85
2023/10/06 07:19:14;;;;;;;12.05;8.15;;;18.20;99.90;;;18.86;87.18;102147.88;5051610;28;20482;-85
2023/10/06 07:21:43;;;;;;;20.60;8.10;;;18.40;99.90;;;18.95;86.22;102154.84;5036849;28;20048;-83
2023/10/06 07:24:14;;;;;;;15.77;7.30;;;18.60;99.90;;;19.18;85.94;102165.16;5052394;28;20542;-86
2023/10/06 07:26:44;;;;;;;16.02;7.43;;;18.70;99.90;;;19.27;84.95;102156.94;5052218;28;20099;-86
2023/10/06 07:29:14;;;;;;;13.80;7.88;;;18.80;99.90;;;19.40;84.56;102163.84;5052182;28;20808;-85
2023/10/06 07:31:42;;;;;;;14.75;8.13;;;19.00;99.90;;;19.39;84.08;102173.72;5051499;28;20558;-85
2023/10/06 07:34:11;;;;;;;12.60;7.40;;;19.00;99.90;;;19.36;84.24;102168.41;5052597;28;20073;-85
2023/10/06 07:36:40;;;;;;;13.52;7.15;;;19.00;99.90;;;19.30;84.16;102157.75;5052424;28;20045;-85
2023/10/06 07:39:09;;;;;;;19.00;7.10;;;18.90;99.90;;;19.20;84.45;102160.66;5053125;28;20049;-84
2023/10/06 07:41:37;;;;;;;16.42;7.95;;;18.80;99.90;;;19.09;84.94;102165.31;5052831;28;20053;-86
2023/10/06 07:44:08;;;;;;;19.65;7.93;;;18.70;99.90;;;18.94;85.58;102166.50;5052810;28;20049;-85
2023/10/06 07:46:37;;;;;;;18.67;8.35;;;18.60;99.90;;;18.91;86.36;102161.19;5052843;28;20060;-86
2023/10/06 07:49:05;;;;;;;19.50;7.97;;;18.50;99.90;;;18.80;86.63;102177.47;5053011;28;20053;-85
2023/10/06 07:51:34;;;;;;;22.70;8.15;;;18.40;99.90;;;18.81;87.02;102181.91;5052616;28;20040;-86
2023/10/06 07:54:03;;;;;;;16.00;7.22;;;18.40;99.90;;;18.83;87.44;102177.38;5052668;28;20045;-85
2023/10/06 07:56:31;;;;;;;18.90;7.75;;;18.40;99.90;;;18.77;87.67;102179.31;5052362;28;20475;-85
2023/10/06 07:58:59;;;;;;;20.30;7.32;;;18.40;99.90;;;18.72;88.25;102174.03;5052404;28;20103;-86
2023/10/06 08:01:29;;;;;;;14.68;6.90;;;18.30;99.90;;;18.67;88.66;102175.91;5052226;28;20036;-82
2023/10/06 08:03:57;;;;;;;17.00;7.43;;;18.30;99.90;;;18.61;89.23;102167.97;5052651;28;20041;-85
2023/10/06 08:06:27;;;;;;;19.60;7.20;;;18.20;99.90;;;18.69;89.48;102168.72;5055013;28;20080;-84
2023/10/06 08:08:56;;;;;;;20.65;7.43;;;18.30;99.90;;;18.71;89.93;102174.06;5055720;28;20502;-84
2023/10/06 08:11:25;;;;;;;22.33;7.78;;;18.30;99.90;;;18.72;90.29;102182.06;5057657;28;20067;-85
2023/10/06 08:13:54;;;;;;;16.98;7.65;;;18.30;99.90;;;18.73;90.38;102172.22;5056787;28;20049;-85
2023/10/06 08:16:26;;;;;;;32.23;8.30;;;18.30;99.90;;;18.70;90.81;102183.00;5058582;28;20076;-85
2023/10/06 08:18:56;;;;;;;17.85;7.25;;;18.30;99.90;;;18.78;91.08;102190.00;5059630;28;20287;-85
2023/10/06 08:21:24;;;;;;;16.33;6.63;;;18.30;99.90;;;18.86;90.94;102190.75;5059723;28;20098;-85
2023/10/06 08:23:52;;;;;;;22.77;8.25;;;18.40;99.90;;;18.95;90.67;102194.22;5058345;28;20087;-84
2023/10/06 08:26:21;;;;;;;14.82;7.38;;;18.50;99.90;;;19.01;90.36;102191.41;5058319;28;20053;-85
2023/10/06 08:28:51;;;;;;;17.88;7.35;;;18.60;99.90;;;18.92;90.35;102184.41;5056929;28;20080;-86
2023/10/06 08:31:19;;;;;;;20.38;7.00;;;18.60;99.90;;;18.89;90.58;102198.75;5057010;28;20051;-84
2023/10/06 08:33:48;;;;;;;20.00;7.32;;;18.50;99.90;;;18.89;90.60;102193.38;5057828;28;20094;-82
2023/10/06 08:36:18;;;;;;;25.35;8.18;;;18.50;99.90;;;18.90;90.93;102195.16;5055925;28;20091;-80
2023/10/06 08:38:47;;;;;;;20.13;7.45;;;18.50;99.90;;;18.89;91.05;102192.53;5054281;28;20045;-73
2023/10/06 08:41:24;;;;;;;19.95;7.50;;;18.40;99.90;;;18.81;91.28;102195.31;5055167;28;20095;-72
2023/10/06 08:43:54;;;;;;;19.20;7.32;;;18.40;99.90;;;18.73;91.57;102202.63;5055357;28;20150;-77
2023/10/06 08:46:23;;;;;;;15.65;6.50;;;18.30;99.90;;;18.90;91.58;102207.69;5054336;28;20486;-77
2023/10/06 08:48:52;;;;;;;16.70;7.10;;;18.40;99.90;;;18.83;91.61;102206.88;5055914;28;20063;-75
2023/10/06 08:51:25;;;;;;;12.57;6.85;;;18.40;99.90;;;18.91;92.03;102204.97;5054778;28;20394;-76
2023/10/06 08:53:57;;;;;;;16.55;7.35;;;18.50;99.90;;;19.00;91.95;102201.25;5054697;28;20064;-76
2023/10/06 08:56:26;;;;;;;16.17;7.38;;;18.60;99.90;;;19.13;91.83;102212.63;5054890;28;20402;-79
2023/10/06 08:58:55;;;;;;;16.23;7.38;;;18.60;99.90;;;19.01;91.28;102213.72;5055114;28;20049;-72
2023/10/06 09:01:24;;;;;;;16.80;7.60;;;18.70;99.90;;;19.09;91.28;102208.22;5055221;28;20067;-75
2023/10/06 09:03:55;;;;;;;18.70;7.45;;;18.60;99.90;;;19.12;91.38;102206.41;5055021;28;20049;-74
2023/10/06 09:06:25;;;;;;;16.77;7.13;;;18.70;99.90;;;19.23;91.27;102200.81;5054903;28;20442;-74
2023/10/06 09:08:54;;;;;;;19.95;7.32;;;18.80;99.90;;;19.16;90.98;102199.19;5055641;28;20049;-75
2023/10/06 09:11:38;;;;;;;18.63;7.18;;;18.80;99.90;;;19.16;91.45;102208.13;5055260;28;20435;-74
2023/10/06 09:14:07;;;;;;;20.55;7.70;;;18.70;99.90;;;19.15;91.62;102192.03;5039795;28;20052;-83
2023/10/06 09:16:54;;;;;;;;;;;18.80;99.90;;;19.18;91.29;102213.44;5055527;28;20049;-80
2023/10/06 09:19:23;;;;;;;15.02;7.30;;;18.90;99.90;;;19.20;91.57;102209.81;5055350;28;19925;-78
2023/10/06 09:22:06;;;;;;;19.48;7.18;;;18.80;99.90;;;19.28;91.62;102207.00;5054744;28;20073;-79
2023/10/06 09:24:35;;;;;;;18.15;7.55;;;18.80;99.90;;;19.22;91.53;102205.28;5054740;28;20124;-79
2023/10/06 09:27:21;;;;;;;15.65;7.22;;;18.80;99.90;;;19.18;91.78;102195.53;5054692;28;20079;-76
2023/10/06 09:29:59;;;;;;;16.67;6.80;;;18.80;99.90;;;19.25;92.20;102193.63;5039174;28;20095;-72
2023/10/06 09:32:27;;;;;;;21.23;7.38;;;18.80;99.90;;;19.34;92.24;102196.16;5054428;28;20053;-79
2023/10/06 09:34:57;;;;;;;22.20;7.35;;;18.90;99.90;;;19.32;92.41;102188.16;5054597;28;20581;-77
2023/10/06 09:37:27;;;;;;;17.30;6.75;;;18.90;99.90;;;19.52;92.65;102190.44;5054471;28;20136;-75
2023/10/06 09:40:13;;;;;;;19.47;7.17;;;19.00;99.90;;;19.51;92.35;102181.50;5054416;28;20049;-74
2023/10/06 09:42:48;;;;;;;16.85;6.63;;;19.10;99.90;;;19.51;92.30;102186.00;5054295;28;20095;-74
2023/10/06 09:45:21;;;;;;;15.02;7.10;;;19.20;99.90;;;19.49;92.41;102195.88;5054596;28;20371;-74
2023/10/06 09:47:56;;;;;;;13.65;6.50;;;19.10;99.90;;;19.69;93.14;102205.31;5054455;28;20049;-74
2023/10/06 09:50:28;;;;;;;24.15;6.88;;;19.20;99.90;;;19.85;92.98;102205.88;5054086;28;20095;-75
2023/10/06 09:53:03;;;;;;;17.02;6.72;;;19.40;99.90;;;20.01;91.80;102220.75;5052867;28;20049;-73
2023/10/06 09:55:35;;;;;;;18.00;7.05;;;19.60;99.90;;;20.15;91.07;102202.50;5038797;28;20037;-81
2023/10/06 09:58:06;;;;;;;20.75;7.07;;;19.70;99.90;;;20.18;90.31;102198.88;5052977;28;20052;-81
2023/10/06 10:00:39;;;;;;;16.15;6.68;;;19.80;99.90;;;20.26;90.09;102203.19;5054042;28;20154;-75
2023/10/06 10:03:12;;;;;;;19.20;6.88;;;19.90;99.90;;;20.26;89.62;102203.19;5054561;28;20059;-83
2023/10/06 10:05:43;;;;;;;20.38;7.38;;;19.90;99.90;;;20.28;89.63;102187.03;5054138;28;20045;-85
2023/10/06 10:08:14;;;;;;;26.30;7.30;;;19.90;99.90;;;20.28;89.22;102195.97;5054168;28;20083;-85
2023/10/06 10:10:46;;;;;;;16.65;6.93;;;19.90;99.90;;;20.26;89.02;102187.06;5052719;28;20459;-77
2023/10/06 10:13:49;;;;;;;18.42;6.63;;;19.90;99.90;;;20.30;89.72;102191.47;5053784;28;20122;-79
2023/10/06 10:16:44;;;;;;;19.70;7.20;;;19.90;99.90;;;20.21;89.70;102183.59;5053904;28;20429;-79
2023/10/06 10:19:17;;;;;;;17.33;6.63;;;19.90;99.90;;;20.31;89.97;102181.56;5039613;28;20455;-74
2023/10/06 10:21:47;;;;;;;22.17;7.45;;;19.90;99.90;;;20.22;89.42;102187.16;5053717;28;20083;-74
2023/10/06 10:24:21;;;;;;;16.95;7.03;;;19.80;99.90;;;20.22;89.35;102182.69;5053730;28;20049;-73